Time;durP1;ratioP1;P1;durP2;ratioP2;P2;SDS_P1;SDS_P2;PMS_P1;PMS_P2;Temp;Humidity;BMP_temperature;BMP_pressure;BME280_temperature;BME280_humidity;BME280_pressure;Samples;Min_cycle;Max_cycle;Signal;HPM_P1;HPM_P2
2022/09/14 00:02:12;;;;;;;;;;;17.00;62.10;;;;;;5043504;27;87145;-41
2022/09/14 00:04:40;;;;;;;;;;;17.00;62.20;;;;;;5045968;28;87326;-41
2022/09/14 00:07:06;;;;;;;;;;;17.00;62.10;;;;;;5043191;27;87115;-41
2022/09/14 00:09:32;;;;;;;;;;;17.00;62.20;;;;;;5042910;27;87431;-41
2022/09/14 00:11:57;;;;;;;;;;;17.00;62.10;;;;;;5043355;27;86472;-42
2022/09/14 00:14:23;;;;;;;;;;;17.00;62.00;;;;;;5043220;28;87165;-41
2022/09/14 00:16:49;;;;;;;;;;;17.00;62.10;;;;;;5043286;28;88007;-41
2022/09/14 00:19:19;;;;;;;;;;;16.90;62.20;;;;;;5041852;28;90584;-41
2022/09/14 00:21:48;;;;;;;;;;;16.90;62.20;;;;;;5042862;27;87051;-42
2022/09/14 00:24:13;;;;;;;;;;;17.00;62.10;;;;;;5042727;27;87195;-41
2022/09/14 00:26:39;;;;;;;;;;;16.90;62.00;;;;;;5045671;28;87249;-41
2022/09/14 00:29:04;;;;;;;;;;;16.90;62.00;;;;;;5043152;28;87455;-41
2022/09/14 00:31:31;;;;;;;;;;;17.00;61.90;;;;;;5042486;27;88916;-41
2022/09/14 00:33:56;;;;;;;;;;;16.90;61.80;;;;;;5043005;27;87017;-41
2022/09/14 00:36:25;;;;;;;;;;;16.90;61.90;;;;;;5043441;27;87350;-41
2022/09/14 00:38:51;;;;;;;;;;;16.90;61.90;;;;;;5042240;27;89341;-41
2022/09/14 00:41:18;;;;;;;;;;;16.90;61.90;;;;;;5042769;28;87015;-41
2022/09/14 00:43:58;;;;;;;;;;;16.90;61.90;;;;;;5042272;27;87993;-41
2022/09/14 00:46:28;;;;;;;;;;;16.90;61.90;;;;;;5042111;27;87868;-42
2022/09/14 00:48:54;;;;;;;;;;;16.90;61.90;;;;;;5045634;27;86995;-41
2022/09/14 00:51:20;;;;;;;;;;;16.90;61.90;;;;;;5042262;27;87813;-41
2022/09/14 00:53:46;;;;;;;;;;;16.80;61.80;;;;;;5042652;27;87031;-41
2022/09/14 00:56:13;;;;;;;;;;;16.80;61.80;;;;;;5042731;27;87507;-41
2022/09/14 00:58:38;;;;;;;;;;;16.80;61.80;;;;;;5042273;27;88275;-42
2022/09/14 01:01:04;;;;;;;;;;;16.80;61.80;;;;;;5043296;27;86383;-41
2022/09/14 01:03:29;;;;;;;;;;;16.80;61.80;;;;;;5042699;28;87007;-41
2022/09/14 01:06:02;;;;;;;;;;;16.80;61.80;;;;;;5042018;28;88022;-41
2022/09/14 01:08:31;;;;;;;;;;;16.80;61.80;;;;;;5044053;28;88039;-41
2022/09/14 01:11:26;;;;;;;;;;;16.80;61.80;;;;;;5042028;27;89295;-41
2022/09/14 01:13:54;;;;;;;;;;;16.80;61.80;;;;;;5004387;27;87009;-41
2022/09/14 01:16:45;;;;;;;;;;;16.70;61.80;;;;;;5042564;28;87420;-41
2022/09/14 01:19:21;;;;;;;;;;;16.70;61.80;;;;;;5042143;27;87906;-41
2022/09/14 01:21:47;;;;;;;;;;;16.70;61.80;;;;;;5042619;27;86952;-41
2022/09/14 01:24:35;;;;;;;;;;;16.70;61.80;;;;;;5044230;27;87262;-41
2022/09/14 01:27:16;;;;;;;;;;;16.70;61.90;;;;;;5039734;28;86618;-41
2022/09/14 01:29:45;;;;;;;;;;;16.70;61.80;;;;;;5045930;27;87093;-41
2022/09/14 01:32:15;;;;;;;;;;;16.70;61.80;;;;;;5048172;27;87927;-41
2022/09/14 01:34:49;;;;;;;;;;;16.70;61.70;;;;;;5044917;27;88024;-41
2022/09/14 01:37:20;;;;;;;;;;;16.60;61.70;;;;;;5045752;28;88458;-41
2022/09/14 01:39:47;;;;;;;;;;;16.60;61.90;;;;;;5045481;28;88361;-41
2022/09/14 01:42:13;;;;;;;;;;;16.60;61.80;;;;;;5045335;27;87152;-41
2022/09/14 01:44:44;;;;;;;;;;;16.60;61.70;;;;;;5045636;27;86997;-41
2022/09/14 01:47:15;;;;;;;;;;;16.60;61.80;;;;;;5045422;28;88094;-41
2022/09/14 01:49:51;;;;;;;;;;;16.60;61.80;;;;;;5045274;27;87273;-41
2022/09/14 01:52:25;;;;;;;;;;;16.60;61.70;;;;;;5045943;27;87912;-41
2022/09/14 01:54:56;;;;;;;;;;;16.50;61.70;;;;;;5048161;27;88080;-41
2022/09/14 01:57:24;;;;;;;;;;;16.50;61.60;;;;;;5045439;27;87363;-41
2022/09/14 01:59:52;;;;;;;;;;;16.60;61.70;;;;;;5044395;28;88899;-41
2022/09/14 02:02:20;;;;;;;;;;;16.50;61.70;;;;;;5045174;27;87021;-41
2022/09/14 02:04:51;;;;;;;;;;;16.50;61.70;;;;;;5045278;28;87395;-41
2022/09/14 02:07:17;;;;;;;;;;;16.50;61.60;;;;;;5043425;28;90912;-41
2022/09/14 02:09:44;;;;;;;;;;;16.50;61.70;;;;;;5044815;28;86999;-41
2022/09/14 02:12:09;;;;;;;;;;;16.40;61.70;;;;;;5045169;27;86959;-41
2022/09/14 02:14:35;;;;;;;;;;;16.50;61.70;;;;;;5044925;27;87175;-41
2022/09/14 02:17:00;;;;;;;;;;;16.40;61.80;;;;;;5048458;28;86399;-41
2022/09/14 02:19:29;;;;;;;;;;;16.40;61.80;;;;;;5044548;27;87980;-41
2022/09/14 02:21:54;;;;;;;;;;;16.40;61.70;;;;;;5044804;27;86806;-41
2022/09/14 02:24:20;;;;;;;;;;;16.40;61.60;;;;;;5044207;27;88829;-41
2022/09/14 02:26:47;;;;;;;;;;;16.40;62.20;;;;;;5044531;28;87037;-41
2022/09/14 02:29:13;;;;;;;;;;;16.40;61.60;;;;;;5044697;28;87118;-41
2022/09/14 02:31:57;;;;;;;;;;;16.40;61.60;;;;;;5045050;27;87162;-41
2022/09/14 02:34:28;;;;;;;;;;;16.40;61.20;;;;;;5043745;27;89507;-41
2022/09/14 02:36:59;;;;;;;;;;;16.40;61.60;;;;;;5044015;27;87119;-41
2022/09/14 02:39:34;;;;;;;;;;;16.40;61.70;;;;;;5047386;28;87598;-42
2022/09/14 02:41:59;;;;;;;;;;;16.40;61.70;;;;;;5045082;27;86106;-41
2022/09/14 02:44:36;;;;;;;;;;;16.30;61.70;;;;;;5044522;27;86852;-41
2022/09/14 02:47:04;;;;;;;;;;;16.30;61.80;;;;;;5044451;27;88179;-41
2022/09/14 02:49:36;;;;;;;;;;;16.30;61.80;;;;;;5044083;27;87926;-41
2022/09/14 02:52:06;;;;;;;;;;;16.20;61.70;;;;;;5044637;28;88388;-41
2022/09/14 02:54:40;;;;;;;;;;;16.30;61.80;;;;;;5044406;27;87152;-41
2022/09/14 02:57:06;;;;;;;;;;;16.30;61.70;;;;;;5044354;27;87103;-41
2022/09/14 02:59:31;;;;;;;;;;;16.20;61.70;;;;;;5044592;28;87412;-41
2022/09/14 03:01:57;;;;;;;;;;;16.20;61.70;;;;;;5047012;28;87423;-41
2022/09/14 03:04:23;;;;;;;;;;;16.20;61.70;;;;;;5044449;28;87505;-41
2022/09/14 03:06:49;;;;;;;;;;;16.20;61.70;;;;;;5044304;28;87438;-41
2022/09/14 03:09:14;;;;;;;;;;;16.10;61.90;;;;;;5043824;27;87090;-41
2022/09/14 03:11:40;;;;;;;;;;;16.10;61.70;;;;;;5044025;28;87516;-41
2022/09/14 03:14:05;;;;;;;;;;;16.20;61.80;;;;;;5043194;28;88859;-41
2022/09/14 03:16:31;;;;;;;;;;;16.20;61.80;;;;;;5043993;28;86987;-41
2022/09/14 03:18:56;;;;;;;;;;;16.20;61.70;;;;;;5044119;27;87282;-41
2022/09/14 03:21:22;;;;;;;;;;;16.10;61.60;;;;;;5046672;28;88016;-41
2022/09/14 03:23:48;;;;;;;;;;;16.10;61.70;;;;;;5044025;28;87246;-41
2022/09/14 03:26:14;;;;;;;;;;;16.10;61.80;;;;;;5043235;27;87855;-41
2022/09/14 03:28:40;;;;;;;;;;;16.00;61.80;;;;;;5043856;27;87558;-41
2022/09/14 03:31:06;;;;;;;;;;;16.10;61.80;;;;;;5044528;28;87653;-41
2022/09/14 03:33:32;;;;;;;;;;;16.10;61.70;;;;;;5043484;27;88130;-41
2022/09/14 03:35:57;;;;;;;;;;;16.00;61.60;;;;;;5043798;28;87061;-41
2022/09/14 03:38:26;;;;;;;;;;;16.00;61.80;;;;;;5042867;27;88168;-41
2022/09/14 03:40:52;;;;;;;;;;;16.00;61.80;;;;;;5043194;27;87989;-41
2022/09/14 03:43:18;;;;;;;;;;;16.00;61.80;;;;;;5046492;28;87077;-41
2022/09/14 03:45:44;;;;;;;;;;;16.00;61.90;;;;;;5042939;27;89282;-41
2022/09/14 03:48:10;;;;;;;;;;;15.90;61.90;;;;;;5043219;28;87116;-41
2022/09/14 03:50:36;;;;;;;;;;;15.90;61.80;;;;;;5043574;28;87439;-41
2022/09/14 03:53:03;;;;;;;;;;;15.90;61.80;;;;;;5043073;27;88189;-41
2022/09/14 03:55:29;;;;;;;;;;;15.90;61.80;;;;;;5043625;28;86492;-41
2022/09/14 03:57:55;;;;;;;;;;;16.00;61.60;;;;;;5043523;27;86935;-41
2022/09/14 04:00:21;;;;;;;;;;;15.90;61.60;;;;;;5043350;27;88014;-41
2022/09/14 04:02:46;;;;;;;;;;;15.90;61.60;;;;;;5042535;28;87997;-41
2022/09/14 04:05:12;;;;;;;;;;;15.90;61.60;;;;;;5045520;27;89799;-41
2022/09/14 04:07:37;;;;;;;;;;;15.90;61.80;;;;;;5042933;28;87052;-41
2022/09/14 04:10:04;;;;;;;;;;;15.80;61.70;;;;;;5043091;27;88726;-41
2022/09/14 04:12:33;;;;;;;;;;;15.80;61.80;;;;;;5042757;27;89356;-41
2022/09/14 04:14:58;;;;;;;;;;;15.90;61.80;;;;;;5043266;27;87093;-41
2022/09/14 04:17:24;;;;;;;;;;;15.80;61.70;;;;;;5043352;28;87371;-41
2022/09/14 04:19:50;;;;;;;;;;;15.80;61.70;;;;;;5043128;28;88781;-41
2022/09/14 04:22:15;;;;;;;;;;;15.80;61.70;;;;;;5043331;28;87063;-41
2022/09/14 04:24:41;;;;;;;;;;;15.80;61.70;;;;;;5042876;28;87121;-41
2022/09/14 04:27:06;;;;;;;;;;;15.80;61.70;;;;;;5044847;28;89097;-41
2022/09/14 04:29:32;;;;;;;;;;;15.80;61.60;;;;;;5043144;28;88291;-41
2022/09/14 04:31:57;;;;;;;;;;;15.80;61.60;;;;;;5042768;28;88014;-41
2022/09/14 04:34:23;;;;;;;;;;;15.80;61.60;;;;;;5043073;28;87147;-41
2022/09/14 04:36:48;;;;;;;;;;;15.80;61.60;;;;;;5043098;28;87543;-41
2022/09/14 04:39:14;;;;;;;;;;;15.70;61.70;;;;;;5042478;28;88233;-41
2022/09/14 04:41:39;;;;;;;;;;;15.70;61.70;;;;;;5042709;27;87117;-41
2022/09/14 04:44:05;;;;;;;;;;;15.70;61.70;;;;;;5043428;28;87303;-41
2022/09/14 04:46:33;;;;;;;;;;;15.70;61.70;;;;;;5042621;28;88028;-41
2022/09/14 04:48:59;;;;;;;;;;;15.70;61.60;;;;;;5045592;28;87181;-41
2022/09/14 04:51:28;;;;;;;;;;;15.70;61.70;;;;;;5041785;27;89083;-41
2022/09/14 04:53:55;;;;;;;;;;;15.70;61.70;;;;;;5042522;27;87091;-41
2022/09/14 04:56:21;;;;;;;;;;;15.70;61.70;;;;;;5042509;27;88822;-41
2022/09/14 04:58:48;;;;;;;;;;;15.60;61.60;;;;;;5043438;28;89331;-41
2022/09/14 05:01:15;;;;;;;;;;;15.70;61.70;;;;;;5046203;27;87130;-41
2022/09/14 05:03:40;;;;;;;;;;;15.60;61.60;;;;;;5046350;27;87211;-41
2022/09/14 05:06:08;;;;;;;;;;;15.60;61.70;;;;;;5045828;27;87932;-41
2022/09/14 05:08:35;;;;;;;;;;;15.70;61.70;;;;;;5045425;27;86364;-41
2022/09/14 05:11:01;;;;;;;;;;;15.60;61.70;;;;;;5048627;27;88124;-41
2022/09/14 05:13:26;;;;;;;;;;;15.60;61.70;;;;;;5046261;27;86998;-41
2022/09/14 05:15:52;;;;;;;;;;;15.60;61.70;;;;;;5045228;27;88898;-41
2022/09/14 05:18:17;;;;;;;;;;;15.60;61.80;;;;;;5045770;28;88032;-41
2022/09/14 05:20:43;;;;;;;;;;;15.60;61.70;;;;;;5045942;27;87077;-41
2022/09/14 05:23:08;;;;;;;;;;;15.50;61.60;;;;;;5045844;27;87347;-41
2022/09/14 05:25:34;;;;;;;;;;;15.50;61.70;;;;;;5045299;27;88097;-41
2022/09/14 05:27:59;;;;;;;;;;;15.50;61.70;;;;;;5045996;28;87088;-41
2022/09/14 05:30:25;;;;;;;;;;;15.50;61.80;;;;;;5048500;27;87014;-41
2022/09/14 05:32:50;;;;;;;;;;;15.50;61.80;;;;;;5046265;28;86345;-41
2022/09/14 05:35:16;;;;;;;;;;;15.50;61.70;;;;;;5045884;28;86995;-41
2022/09/14 05:37:41;;;;;;;;;;;15.50;61.70;;;;;;5045296;28;87208;-41
2022/09/14 05:40:07;;;;;;;;;;;15.50;61.70;;;;;;5044879;28;88025;-41
2022/09/14 05:42:33;;;;;;;;;;;15.50;61.80;;;;;;5045316;28;89710;-41
2022/09/14 05:44:59;;;;;;;;;;;15.50;61.80;;;;;;5045192;28;87846;-41
2022/09/14 05:47:27;;;;;;;;;;;15.40;61.80;;;;;;5045550;28;87084;-41
2022/09/14 05:49:52;;;;;;;;;;;15.40;61.80;;;;;;5045473;27;87426;-41
2022/09/14 05:52:19;;;;;;;;;;;15.40;61.80;;;;;;5047911;28;87715;-41
2022/09/14 05:54:44;;;;;;;;;;;15.40;61.90;;;;;;5045299;27;88912;-41
2022/09/14 05:57:10;;;;;;;;;;;15.40;62.00;;;;;;5045650;28;86655;-41
2022/09/14 05:59:35;;;;;;;;;;;15.40;61.90;;;;;;5045350;28;87172;-41
2022/09/14 06:02:01;;;;;;;;;;;15.40;61.90;;;;;;5045288;28;87472;-41
2022/09/14 06:04:27;;;;;;;;;;;15.40;61.90;;;;;;5044398;28;89052;-41
2022/09/14 06:06:52;;;;;;;;;;;15.40;61.90;;;;;;5045302;28;87152;-41
2022/09/14 06:09:17;;;;;;;;;;;15.40;62.00;;;;;;5043786;27;87854;-41
2022/09/14 06:11:43;;;;;;;;;;;15.50;62.00;;;;;;5044925;28;88006;-41
2022/09/14 06:14:08;;;;;;;;;;;15.40;62.00;;;;;;5048250;28;87102;-41
2022/09/14 06:16:34;;;;;;;;;;;15.40;62.00;;;;;;5044729;28;87984;-41
2022/09/14 06:18:59;;;;;;;;;;;15.40;62.00;;;;;;5044942;28;87097;-41
2022/09/14 06:21:29;;;;;;;;;;;15.40;62.10;;;;;;5045723;28;86573;-41
2022/09/14 06:23:55;;;;;;;;;;;15.40;62.10;;;;;;5044378;27;87969;-41
2022/09/14 06:26:20;;;;;;;;;;;15.40;62.20;;;;;;5044672;28;87141;-41
2022/09/14 06:28:46;;;;;;;;;;;15.50;62.00;;;;;;5044366;28;88009;-41
2022/09/14 06:31:12;;;;;;;;;;;15.40;62.00;;;;;;5044472;28;88023;-41
2022/09/14 06:33:41;;;;;;;;;;;15.40;62.10;;;;;;5044560;27;87620;-41
2022/09/14 06:36:10;;;;;;;;;;;15.40;62.10;;;;;;5047231;27;87465;-41
2022/09/14 06:38:36;;;;;;;;;;;15.40;62.20;;;;;;5044245;27;87179;-41
2022/09/14 06:41:03;;;;;;;;;;;15.40;62.20;;;;;;5044821;27;87482;-41
2022/09/14 06:43:30;;;;;;;;;;;15.40;62.40;;;;;;5044116;27;89621;-41
2022/09/14 06:45:56;;;;;;;;;;;15.40;62.40;;;;;;5044971;28;86220;-41
2022/09/14 06:48:21;;;;;;;;;;;15.30;62.50;;;;;;5044786;27;87051;-41
2022/09/14 06:50:47;;;;;;;;;;;15.30;62.70;;;;;;5043914;27;89539;-41
2022/09/14 06:53:12;;;;;;;;;;;15.30;62.70;;;;;;5043963;28;88090;-41
2022/09/14 06:55:38;;;;;;;;;;;15.30;62.60;;;;;;5044651;28;88362;-41
2022/09/14 06:58:03;;;;;;;;;;;15.30;62.90;;;;;;5047244;28;87962;-41
2022/09/14 07:00:29;;;;;;;;;;;15.30;62.80;;;;;;5044251;27;88853;-41
2022/09/14 07:02:54;;;;;;;;;;;15.30;62.80;;;;;;5043883;27;89575;-41
2022/09/14 07:05:21;;;;;;;;;;;15.30;62.80;;;;;;5044361;28;87050;-41
2022/09/14 07:07:50;;;;;;;;;;;15.30;62.70;;;;;;5043664;27;87415;-41
2022/09/14 07:10:15;;;;;;;;;;;15.30;62.70;;;;;;5044136;27;87187;-41
2022/09/14 07:12:41;;;;;;;;;;;15.40;62.60;;;;;;5044237;28;87097;-41
2022/09/14 07:15:07;;;;;;;;;;;15.40;62.40;;;;;;5044176;28;87060;-41
2022/09/14 07:17:32;;;;;;;;;;;15.40;62.50;;;;;;5042873;27;88949;-41
2022/09/14 07:19:57;;;;;;;;;;;15.40;62.70;;;;;;5046970;27;86982;-41
2022/09/14 07:22:23;;;;;;;;;;;15.40;62.70;;;;;;5042613;27;88100;-41
2022/09/14 07:24:49;;;;;;;;;;;15.40;62.60;;;;;;5043867;28;87070;-41
2022/09/14 07:27:14;;;;;;;;;;;15.40;62.70;;;;;;5043758;27;87475;-41
2022/09/14 07:29:40;;;;;;;;;;;15.30;63.40;;;;;;5043525;28;88306;-41
2022/09/14 07:32:05;;;;;;;;;;;15.30;62.80;;;;;;5043570;27;87625;-41
2022/09/14 07:34:31;;;;;;;;;;;15.40;62.90;;;;;;5044237;28;87541;-41
2022/09/14 07:36:56;;;;;;;;;;;15.30;62.90;;;;;;5043449;28;88256;-41
2022/09/14 07:39:22;;;;;;;;;;;15.40;62.90;;;;;;5046306;27;87123;-41
2022/09/14 07:41:48;;;;;;;;;;;15.40;62.90;;;;;;5042893;28;89046;-41
2022/09/14 07:44:14;;;;;;;;;;;15.40;62.80;;;;;;5043634;27;87110;-41
2022/09/14 07:46:42;;;;;;;;;;;15.40;62.80;;;;;;5043621;27;86916;-41
2022/09/14 07:49:08;;;;;;;;;;;15.40;62.80;;;;;;5043257;27;88070;-41
2022/09/14 07:51:33;;;;;;;;;;;15.40;62.80;;;;;;5043440;27;87035;-41
2022/09/14 07:54:02;;;;;;;;;;;15.40;62.90;;;;;;5043326;27;87970;-41
2022/09/14 07:56:28;;;;;;;;;;;15.40;62.90;;;;;;5043251;27;87689;-41
2022/09/14 07:58:55;;;;;;;;;;;15.40;63.00;;;;;;5043828;27;86393;-41
2022/09/14 08:01:22;;;;;;;;;;;15.40;63.10;;;;;;5046145;27;87106;-41
2022/09/14 08:03:47;;;;;;;;;;;15.40;63.20;;;;;;5043280;27;87195;-41
2022/09/14 08:06:14;;;;;;;;;;;15.40;63.30;;;;;;5042438;28;88130;-41
2022/09/14 08:08:42;;;;;;;;;;;15.50;63.20;;;;;;5042266;28;88142;-41
2022/09/14 08:11:10;;;;;;;;;;;15.40;63.20;;;;;;5043226;27;87123;-41
2022/09/14 08:13:36;;;;;;;;;;;15.40;63.20;;;;;;5043353;27;87706;-41
2022/09/14 08:16:02;;;;;;;;;;;15.50;63.20;;;;;;5042951;27;88026;-41
2022/09/14 08:18:28;;;;;;;;;;;15.40;63.30;;;;;;5043332;27;87148;-41
2022/09/14 08:20:54;;;;;;;;;;;15.40;63.20;;;;;;5042848;27;87148;-41
2022/09/14 08:23:19;;;;;;;;;;;15.50;63.30;;;;;;5045967;27;88526;-41
2022/09/14 08:25:45;;;;;;;;;;;15.50;63.30;;;;;;5042975;28;87376;-41
2022/09/14 08:28:10;;;;;;;;;;;15.40;63.30;;;;;;5042721;28;88036;-41
2022/09/14 08:30:36;;;;;;;;;;;15.50;63.40;;;;;;5042595;28;87809;-41
2022/09/14 08:33:01;;;;;;;;;;;15.50;63.40;;;;;;5043152;28;88418;-41
2022/09/14 08:35:27;;;;;;;;;;;15.50;63.40;;;;;;5042455;28;88309;-41
2022/09/14 08:37:52;;;;;;;;;;;15.50;63.40;;;;;;5042537;27;87051;-41
2022/09/14 08:40:18;;;;;;;;;;;15.50;63.50;;;;;;5042923;28;87325;-41
2022/09/14 08:42:44;;;;;;;;;;;15.50;63.40;;;;;;5042036;27;89039;-41
2022/09/14 08:45:11;;;;;;;;;;;15.50;63.60;;;;;;5045288;27;87056;-41
2022/09/14 08:47:38;;;;;;;;;;;15.50;63.50;;;;;;5042697;28;86258;-41
2022/09/14 08:50:09;;;;;;;;;;;15.50;63.60;;;;;;5042540;27;87105;-41
2022/09/14 08:52:36;;;;;;;;;;;15.50;63.60;;;;;;5042904;27;87478;-41
2022/09/14 08:55:28;;;;;;;;;;;15.60;63.50;;;;;;5041220;27;88765;-41
2022/09/14 08:57:59;;;;;;;;;;;15.60;63.40;;;;;;5025203;27;87035;-41
2022/09/14 09:00:30;;;;;;;;;;;15.60;63.50;;;;;;5042305;27;87472;-41
2022/09/14 09:02:55;;;;;;;;;;;15.70;63.50;;;;;;5041845;27;88120;-41
2022/09/14 09:05:40;;;;;;;;;;;15.60;63.50;;;;;;5042319;27;87146;-41
2022/09/14 09:08:27;;;;;;;;;;;15.60;63.50;;;;;;5044631;27;91010;-41
2022/09/14 09:10:53;;;;;;;;;;;15.60;63.50;;;;;;5042063;28;89132;-41
2022/09/14 09:13:21;;;;;;;;;;;15.60;63.50;;;;;;5042758;27;87403;-41
2022/09/14 09:15:48;;;;;;;;;;;15.70;63.70;;;;;;5042167;28;88034;-41
2022/09/14 09:18:33;;;;;;;;;;;15.70;63.70;;;;;;5042284;27;87068;-41
2022/09/14 09:21:11;;;;;;;;;;;15.70;63.70;;;;;;5041908;27;87926;-41
2022/09/14 09:23:37;;;;;;;;;;;15.70;63.60;;;;;;5041750;27;89378;-41
2022/09/14 09:26:10;;;;;;;;;;;15.70;63.60;;;;;;5042426;27;87064;-41
2022/09/14 09:28:41;;;;;;;;;;;15.70;63.70;;;;;;5044742;28;88878;-41
2022/09/14 09:31:09;;;;;;;;;;;15.70;63.70;;;;;;5042505;28;86936;-41
2022/09/14 09:33:34;;;;;;;;;;;15.70;63.70;;;;;;5042234;27;87265;-41
2022/09/14 09:36:00;;;;;;;;;;;15.80;63.60;;;;;;5041784;27;88110;-42
2022/09/14 09:38:27;;;;;;;;;;;15.80;63.60;;;;;;5042567;27;86342;-41
2022/09/14 09:40:57;;;;;;;;;;;15.80;63.50;;;;;;5042115;28;86882;-41
2022/09/14 09:43:23;;;;;;;;;;;15.80;63.50;;;;;;5041605;27;87423;-41
2022/09/14 09:45:51;;;;;;;;;;;15.80;63.50;;;;;;5043903;27;88142;-41
2022/09/14 09:48:18;;;;;;;;;;;15.80;63.50;;;;;;5045353;27;90030;-41
2022/09/14 09:51:02;;;;;;;;;;;15.90;63.50;;;;;;5048157;27;89258;-41
2022/09/14 09:53:28;;;;;;;;;;;15.90;63.70;;;;;;5045441;28;86967;-41
2022/09/14 09:55:55;;;;;;;;;;;15.90;63.70;;;;;;5045061;27;87922;-42
2022/09/14 09:58:29;;;;;;;;;;;15.90;63.80;;;;;;5045433;27;87012;-41
2022/09/14 10:00:56;;;;;;;;;;;16.00;63.90;;;;;;5045270;28;87485;-41
2022/09/14 10:03:29;;;;;;;;;;;16.00;63.60;;;;;;5045484;28;86710;-41
2022/09/14 10:06:01;;;;;;;;;;;16.00;63.70;;;;;;5045098;27;87128;-41
2022/09/14 10:08:26;;;;;;;;;;;16.00;63.80;;;;;;5044729;27;87313;-42
2022/09/14 10:10:52;;;;;;;;;;;16.00;63.80;;;;;;5044121;27;89035;-41
2022/09/14 10:13:26;;;;;;;;;;;16.00;63.90;;;;;;5048228;28;87084;-41
2022/09/14 10:15:52;;;;;;;;;;;16.00;63.90;;;;;;5044535;27;88202;-42
2022/09/14 10:18:19;;;;;;;;;;;16.10;63.90;;;;;;5045013;27;87098;-41
2022/09/14 10:20:44;;;;;;;;;;;16.10;63.90;;;;;;5044882;27;88670;-41
2022/09/14 10:23:19;;;;;;;;;;;16.10;64.00;;;;;;5044720;28;88126;-41
2022/09/14 10:25:45;;;;;;;;;;;16.10;64.10;;;;;;5044773;27;87084;-41
2022/09/14 10:28:20;;;;;;;;;;;16.10;63.80;;;;;;5045523;27;87436;-41
2022/09/14 10:30:49;;;;;;;;;;;16.20;63.90;;;;;;5044402;27;89217;-41
2022/09/14 10:33:16;;;;;;;;;;;16.20;63.90;;;;;;5044698;27;87155;-41
2022/09/14 10:35:56;;;;;;;;;;;16.20;64.00;;;;;;5046837;27;87928;-41
2022/09/14 10:38:27;;;;;;;;;;;16.20;64.00;;;;;;5044582;27;86954;-41
2022/09/14 10:41:11;;;;;;;;;;;16.30;64.00;;;;;;5044694;28;87455;-42
2022/09/14 10:43:45;;;;;;;;;;;16.30;63.60;;;;;;5044263;27;89325;-41
2022/09/14 10:46:12;;;;;;;;;;;16.30;63.70;;;;;;5044776;27;87032;-41
2022/09/14 10:48:39;;;;;;;;;;;16.30;63.60;;;;;;5044843;27;87044;-41
2022/09/14 10:51:23;;;;;;;;;;;16.40;63.60;;;;;;5044177;27;87130;-41
2022/09/14 10:53:55;;;;;;;;;;;16.40;63.50;;;;;;5044939;27;86396;-41
2022/09/14 10:56:25;;;;;;;;;;;16.40;63.60;;;;;;5043375;27;86980;-41
2022/09/14 10:58:51;;;;;;;;;;;16.40;63.60;;;;;;5045688;28;91033;-41
2022/09/14 11:01:19;;;;;;;;;;;16.50;63.60;;;;;;5043922;28;88077;-41
2022/09/14 11:03:56;;;;;;;;;;;16.50;64.20;;;;;;5044123;28;88044;-41
2022/09/14 11:06:22;;;;;;;;;;;16.50;63.60;;;;;;5044429;27;87092;-42
2022/09/14 11:08:52;;;;;;;;;;;16.50;63.50;;;;;;5043869;28;87135;-41
2022/09/14 11:11:18;;;;;;;;;;;16.50;63.50;;;;;;5043518;28;89614;-41
2022/09/14 11:13:52;;;;;;;;;;;16.50;63.60;;;;;;5044093;27;87086;-41
2022/09/14 11:16:33;;;;;;;;;;;16.60;63.60;;;;;;5043951;28;89026;-41
2022/09/14 11:19:20;;;;;;;;;;;16.60;63.60;;;;;;5044056;27;87796;-42
2022/09/14 11:21:46;;;;;;;;;;;16.60;63.60;;;;;;5024851;27;87197;-42
2022/09/14 11:24:11;;;;;;;;;;;16.70;63.60;;;;;;5044063;28;88031;-41
2022/09/14 11:26:42;;;;;;;;;;;16.70;63.50;;;;;;5043322;27;88137;-41
2022/09/14 11:29:25;;;;;;;;;;;16.70;63.50;;;;;;5043904;27;88460;-42
2022/09/14 11:32:11;;;;;;;;;;;16.80;63.60;;;;;;5043322;27;87869;-41
2022/09/14 11:34:42;;;;;;;;;;;16.70;63.50;;;;;;5043340;28;87281;-41
2022/09/14 11:37:13;;;;;;;;;;;16.80;63.50;;;;;;5043681;28;87749;-42
2022/09/14 11:39:41;;;;;;;;;;;16.80;63.60;;;;;;5043341;27;87186;-41
2022/09/14 11:42:07;;;;;;;;;;;16.80;63.50;;;;;;5046438;27;87285;-41
2022/09/14 11:44:35;;;;;;;;;;;16.90;63.50;;;;;;5043788;27;87086;-41
2022/09/14 11:47:03;;;;;;;;;;;16.90;63.50;;;;;;5043427;27;86989;-41
2022/09/14 11:49:31;;;;;;;;;;;16.90;63.60;;;;;;5043427;28;88905;-41
2022/09/14 11:52:00;;;;;;;;;;;17.00;63.70;;;;;;5042483;28;88952;-41
2022/09/14 11:54:26;;;;;;;;;;;17.00;63.60;;;;;;5043385;27;87038;-41
2022/09/14 11:56:54;;;;;;;;;;;17.00;63.50;;;;;;5043222;27;88885;-41
2022/09/14 11:59:34;;;;;;;;;;;17.00;63.60;;;;;;5043124;27;89406;-41
2022/09/14 12:02:18;;;;;;;;;;;17.10;63.70;;;;;;5043254;27;87056;-41
2022/09/14 12:05:02;;;;;;;;;;;17.10;63.70;;;;;;5045773;27;87389;-41
2022/09/14 12:07:46;;;;;;;;;;;17.10;63.50;;;;;;5042740;27;87207;-41
2022/09/14 12:10:15;;;;;;;;;;;17.20;63.50;;;;;;5043406;27;88915;-41
2022/09/14 12:12:41;;;;;;;;;;;17.20;63.50;;;;;;5042837;27;89212;-41
2022/09/14 12:15:16;;;;;;;;;;;17.20;63.40;;;;;;5043187;27;87112;-41
2022/09/14 12:17:43;;;;;;;;;;;17.20;63.40;;;;;;5042656;28;88255;-41
2022/09/14 12:20:30;;;;;;;;;;;17.30;63.50;;;;;;5042666;28;89212;-41
2022/09/14 12:23:05;;;;;;;;;;;17.30;63.40;;;;;;5042931;28;87053;-42
2022/09/14 12:25:31;;;;;;;;;;;17.30;63.40;;;;;;5043154;28;87392;-41
2022/09/14 12:27:56;;;;;;;;;;;17.40;63.50;;;;;;5045820;28;87483;-42
2022/09/14 12:30:40;;;;;;;;;;;17.40;63.40;;;;;;5043258;28;87472;-41
2022/09/14 12:33:24;;;;;;;;;;;17.40;63.30;;;;;;5042741;27;86968;-41
2022/09/14 12:35:50;;;;;;;;;;;17.40;63.30;;;;;;5043412;27;86346;-41
2022/09/14 12:38:30;;;;;;;;;;;17.50;63.30;;;;;;5042705;28;86881;-41
2022/09/14 12:41:21;;;;;;;;;;;17.50;63.30;;;;;;5042655;28;88039;-41
2022/09/14 12:43:50;;;;;;;;;;;17.50;63.30;;;;;;5042213;28;88021;-41
2022/09/14 12:46:18;;;;;;;;;;;17.50;63.30;;;;;;5042597;28;90037;-41
2022/09/14 12:48:47;;;;;;;;;;;17.60;63.40;;;;;;5042465;28;88826;-41
2022/09/14 12:51:15;;;;;;;;;;;17.60;63.20;;;;;;5045377;27;87145;-41
2022/09/14 12:53:42;;;;;;;;;;;17.60;63.30;;;;;;5042399;28;88468;-41
2022/09/14 12:56:18;;;;;;;;;;;17.60;63.30;;;;;;5042648;27;87043;-41
2022/09/14 12:58:50;;;;;;;;;;;17.60;63.20;;;;;;5042900;27;87379;-41
2022/09/14 13:01:28;;;;;;;;;;;17.60;63.20;;;;;;5042744;28;88736;-42
2022/09/14 13:03:54;;;;;;;;;;;17.70;63.20;;;;;;5042637;28;87100;-41
2022/09/14 13:06:21;;;;;;;;;;;17.70;63.20;;;;;;5042562;27;87358;-41
2022/09/14 13:08:54;;;;;;;;;;;17.80;63.30;;;;;;5041323;28;88979;-41
2022/09/14 13:11:25;;;;;;;;;;;17.80;63.20;;;;;;5042165;28;87151;-41
2022/09/14 13:13:51;;;;;;;;;;;17.80;63.20;;;;;;5045049;28;88067;-42
2022/09/14 13:16:22;;;;;;;;;;;17.90;63.30;;;;;;5042398;27;87134;-41
2022/09/14 13:18:47;;;;;;;;;;;17.90;63.20;;;;;;5042528;27;87314;-41
2022/09/14 13:21:13;;;;;;;;;;;17.90;63.20;;;;;;5045491;28;88011;-41
2022/09/14 13:23:41;;;;;;;;;;;17.90;63.20;;;;;;5046051;27;86799;-41
2022/09/14 13:26:11;;;;;;;;;;;18.00;63.30;;;;;;5046284;28;87430;-42
2022/09/14 13:28:36;;;;;;;;;;;18.00;63.20;;;;;;5045474;27;87777;-41
2022/09/14 13:31:02;;;;;;;;;;;18.00;63.30;;;;;;5045702;28;87022;-42
2022/09/14 13:33:28;;;;;;;;;;;18.00;63.30;;;;;;5045166;27;87981;-41
2022/09/14 13:35:55;;;;;;;;;;;18.10;63.40;;;;;;5048207;27;87968;-42
2022/09/14 13:38:41;;;;;;;;;;;18.10;63.30;;;;;;5045786;28;87020;-41
2022/09/14 13:41:08;;;;;;;;;;;18.20;63.40;;;;;;5045507;27;87160;-42
2022/09/14 13:43:34;;;;;;;;;;;18.20;63.50;;;;;;5045749;27;87171;-42
2022/09/14 13:46:00;;;;;;;;;;;18.20;63.40;;;;;;5045679;27;87304;-41
2022/09/14 13:48:25;;;;;;;;;;;18.30;63.50;;;;;;5045094;28;87694;-42
2022/09/14 13:50:51;;;;;;;;;;;18.30;63.40;;;;;;5046313;28;86591;-41
2022/09/14 13:53:36;;;;;;;;;;;18.30;63.40;;;;;;5045021;27;87162;-41
2022/09/14 13:56:20;;;;;;;;;;;18.30;63.30;;;;;;5048056;27;87097;-41
2022/09/14 13:58:49;;;;;;;;;;;18.40;63.50;;;;;;5044748;27;87939;-41
2022/09/14 14:01:22;;;;;;;;;;;18.40;63.40;;;;;;5044948;28;89429;-42
2022/09/14 14:03:48;;;;;;;;;;;18.40;63.40;;;;;;5045025;27;87044;-42
2022/09/14 14:06:22;;;;;;;;;;;18.40;63.40;;;;;;5045121;27;87091;-42
2022/09/14 14:08:52;;;;;;;;;;;18.50;63.40;;;;;;5044271;27;88319;-42
2022/09/14 14:11:24;;;;;;;;;;;18.50;63.30;;;;;;5044902;27;87125;-41
2022/09/14 14:13:50;;;;;;;;;;;18.50;63.30;;;;;;5045356;27;87197;-41
2022/09/14 14:16:22;;;;;;;;;;;18.50;63.30;;;;;;5045044;28;87119;-41
2022/09/14 14:18:48;;;;;;;;;;;18.50;63.30;;;;;;5047970;28;87010;-41
2022/09/14 14:21:13;;;;;;;;;;;18.60;63.30;;;;;;5044680;28;87979;-41
2022/09/14 14:23:39;;;;;;;;;;;18.60;63.30;;;;;;5044132;28;88238;-41
2022/09/14 14:26:06;;;;;;;;;;;18.60;63.30;;;;;;5044515;27;89775;-41